createdAt,value
2023-04-30T00:00:00.401Z,46.00
2023-04-30T00:02:29.061Z,46.00
2023-04-30T00:04:58.297Z,46.00
2023-04-30T00:07:27.008Z,46.10
2023-04-30T00:09:56.510Z,46.10
2023-04-30T00:12:26.182Z,46.10
2023-04-30T00:14:55.501Z,46.10
2023-04-30T00:17:24.379Z,46.10
2023-04-30T00:19:53.257Z,46.10
2023-04-30T00:22:21.668Z,46.10
2023-04-30T00:24:50.477Z,46.20
2023-04-30T00:27:19.761Z,46.20
2023-04-30T00:29:49.033Z,46.20
2023-04-30T00:32:17.898Z,46.20
2023-04-30T00:34:46.747Z,46.20
2023-04-30T00:37:15.515Z,46.10
2023-04-30T00:39:44.106Z,46.20
2023-04-30T00:42:11.913Z,46.10
2023-04-30T00:44:40.180Z,46.20
2023-04-30T00:47:08.080Z,46.20
2023-04-30T00:49:36.114Z,46.20
2023-04-30T00:52:04.801Z,46.20
2023-04-30T00:54:33.122Z,46.30
2023-04-30T00:57:01.996Z,46.30
2023-04-30T00:59:29.945Z,46.20
2023-04-30T01:01:58.838Z,46.30
2023-04-30T01:04:27.714Z,46.90
2023-04-30T01:06:56.689Z,46.30
2023-04-30T01:09:25.099Z,46.20
2023-04-30T01:11:54.273Z,46.30
2023-04-30T01:14:23.391Z,46.30
2023-04-30T01:16:52.276Z,46.30
2023-04-30T01:19:21.164Z,46.40
2023-04-30T01:21:49.536Z,46.30
2023-04-30T01:24:17.969Z,46.30
2023-04-30T01:26:47.642Z,46.30
2023-04-30T01:29:15.994Z,46.30
2023-04-30T01:31:44.899Z,46.30
2023-04-30T01:34:14.356Z,46.30
2023-04-30T01:36:42.690Z,46.30
2023-04-30T01:39:11.242Z,46.40
2023-04-30T01:41:40.239Z,46.40
2023-04-30T01:44:09.085Z,46.40
2023-04-30T01:46:37.645Z,46.40
2023-04-30T01:49:05.502Z,46.40
2023-04-30T01:51:33.968Z,46.50
2023-04-30T01:54:02.821Z,46.40
2023-04-30T01:56:31.294Z,46.40
2023-04-30T01:59:00.372Z,46.40
2023-04-30T02:01:28.971Z,46.50
2023-04-30T02:03:57.827Z,46.50
2023-04-30T02:06:26.152Z,46.50
2023-04-30T02:08:54.592Z,46.40
2023-04-30T02:11:23.384Z,46.40
2023-04-30T02:13:52.127Z,46.40
2023-04-30T02:16:21.137Z,46.40
2023-04-30T02:18:49.563Z,46.40
2023-04-30T02:21:18.504Z,46.50
2023-04-30T02:23:48.536Z,46.40
2023-04-30T02:26:17.413Z,46.40
2023-04-30T02:28:46.300Z,46.40
2023-04-30T02:31:15.221Z,46.40
2023-04-30T02:33:47.378Z,46.40
2023-04-30T02:36:16.649Z,46.50
2023-04-30T02:38:45.703Z,46.40
2023-04-30T02:41:14.690Z,46.50
2023-04-30T02:43:43.243Z,46.50
2023-04-30T02:46:10.997Z,46.40
2023-04-30T02:48:40.082Z,46.50
2023-04-30T02:51:09.847Z,46.50
2023-04-30T02:53:38.747Z,46.50
2023-04-30T02:56:07.286Z,46.50
2023-04-30T02:58:36.619Z,47.10
2023-04-30T03:01:04.969Z,46.40
2023-04-30T03:03:33.752Z,46.40
2023-04-30T03:06:02.696Z,46.50
2023-04-30T03:08:31.733Z,46.40
2023-04-30T03:11:00.616Z,46.40
2023-04-30T03:13:29.770Z,46.40
2023-04-30T03:15:58.711Z,46.40
2023-04-30T03:18:28.001Z,46.40
2023-04-30T03:20:56.559Z,46.50
2023-04-30T03:23:24.362Z,46.40
2023-04-30T03:25:53.587Z,46.40
2023-04-30T03:28:22.948Z,46.50
2023-04-30T03:30:51.714Z,46.40
2023-04-30T03:33:21.165Z,46.50
2023-04-30T03:35:50.141Z,46.50
2023-04-30T03:38:18.827Z,46.80
2023-04-30T03:40:47.090Z,46.50
2023-04-30T03:43:15.686Z,46.50
2023-04-30T03:45:43.849Z,46.50
2023-04-30T03:48:12.831Z,47.10
2023-04-30T03:50:42.241Z,46.40
2023-04-30T03:53:13.473Z,46.40
2023-04-30T03:55:42.487Z,46.50
2023-04-30T03:58:11.861Z,46.50
2023-04-30T04:00:39.964Z,46.50
2023-04-30T04:03:08.115Z,46.40
2023-04-30T04:05:36.904Z,46.40
2023-04-30T04:08:05.402Z,46.40
2023-04-30T04:10:34.128Z,46.40
2023-04-30T04:13:02.960Z,46.40
2023-04-30T04:15:31.841Z,46.50
2023-04-30T04:18:01.259Z,46.40
2023-04-30T04:20:29.845Z,46.40
2023-04-30T04:22:58.279Z,46.40
2023-04-30T04:25:26.667Z,46.40
2023-04-30T04:27:55.418Z,46.40
2023-04-30T04:30:24.273Z,46.40
2023-04-30T04:32:53.440Z,46.40
2023-04-30T04:35:22.848Z,46.40
2023-04-30T04:37:51.304Z,46.40
2023-04-30T04:40:20.070Z,46.40
2023-04-30T04:42:48.385Z,46.40
2023-04-30T04:45:16.842Z,46.30
2023-04-30T04:47:45.339Z,46.30
2023-04-30T04:50:15.193Z,46.30
2023-04-30T04:52:44.168Z,46.30
2023-04-30T04:55:12.506Z,46.20
2023-04-30T04:57:41.297Z,46.20
2023-04-30T05:00:10.267Z,46.10
2023-04-30T05:02:39.070Z,46.10
2023-04-30T05:05:07.641Z,46.00
2023-04-30T05:07:36.304Z,46.00
2023-04-30T05:10:05.264Z,46.00
2023-04-30T05:12:34.147Z,46.00
2023-04-30T05:15:03.414Z,45.90
2023-04-30T05:17:31.923Z,45.90
2023-04-30T05:20:01.675Z,45.90
2023-04-30T05:22:30.499Z,45.80
2023-04-30T05:24:59.201Z,45.80
2023-04-30T05:27:28.509Z,45.70
2023-04-30T05:29:57.691Z,45.80
2023-04-30T05:32:27.046Z,45.80
2023-04-30T05:34:55.807Z,45.70
2023-04-30T05:37:24.616Z,45.70
2023-04-30T05:39:53.398Z,45.60
2023-04-30T05:42:22.237Z,45.50
2023-04-30T05:44:51.492Z,45.50
2023-04-30T05:47:20.860Z,45.40
2023-04-30T05:49:49.779Z,45.40
2023-04-30T05:52:18.613Z,45.40
2023-04-30T05:54:49.393Z,45.20
2023-04-30T05:57:19.069Z,45.30
2023-04-30T05:59:48.453Z,45.20
2023-04-30T06:02:17.775Z,45.20
2023-04-30T06:04:47.114Z,45.20
2023-04-30T06:07:16.257Z,45.10
2023-04-30T06:09:45.502Z,45.10
2023-04-30T06:12:14.767Z,45.00
2023-04-30T06:14:43.933Z,45.00
2023-04-30T06:17:13.245Z,44.90
2023-04-30T06:19:42.543Z,45.60
2023-04-30T06:22:11.898Z,44.90
2023-04-30T06:24:41.278Z,44.80
2023-04-30T06:27:11.143Z,44.80
2023-04-30T06:29:40.535Z,44.80
2023-04-30T06:32:09.138Z,44.70
2023-04-30T06:34:37.348Z,44.70
2023-04-30T06:37:06.518Z,44.70
2023-04-30T06:39:35.309Z,44.60
2023-04-30T06:42:04.687Z,44.60
2023-04-30T06:44:33.863Z,44.50
2023-04-30T06:47:02.220Z,44.60
2023-04-30T06:49:31.192Z,44.50
2023-04-30T06:51:59.770Z,44.40
2023-04-30T06:54:29.072Z,44.40
2023-04-30T06:56:57.815Z,44.30
2023-04-30T06:59:26.640Z,44.30
2023-04-30T07:01:55.766Z,44.30
2023-04-30T07:04:24.586Z,44.30
2023-04-30T07:06:53.481Z,44.20
2023-04-30T07:09:22.836Z,44.10
2023-04-30T07:11:51.334Z,44.10
2023-04-30T07:14:21.060Z,44.00
2023-04-30T07:16:50.606Z,44.60
2023-04-30T07:19:20.392Z,43.90
2023-04-30T07:21:51.625Z,43.80
2023-04-30T07:24:21.426Z,43.70
2023-04-30T07:26:50.369Z,43.70
2023-04-30T07:29:19.059Z,43.70
2023-04-30T07:31:48.522Z,43.60
2023-04-30T07:34:17.903Z,43.50
2023-04-30T07:36:47.252Z,43.40
2023-04-30T07:39:16.626Z,43.10
2023-04-30T07:41:45.974Z,42.90
2023-04-30T07:44:14.920Z,42.70
2023-04-30T07:46:44.306Z,42.50
2023-04-30T07:49:13.716Z,42.10
2023-04-30T07:51:42.338Z,41.90
2023-04-30T07:54:11.070Z,41.90
2023-04-30T07:56:40.367Z,41.70
2023-04-30T07:59:09.605Z,41.20
2023-04-30T08:01:38.466Z,41.00
2023-04-30T08:04:07.944Z,41.00
2023-04-30T08:06:37.373Z,40.80
2023-04-30T08:09:06.742Z,40.70
2023-04-30T08:11:36.218Z,40.40
2023-04-30T08:14:04.724Z,40.30
2023-04-30T08:16:33.532Z,40.10
2023-04-30T08:19:02.784Z,40.00
2023-04-30T08:21:32.109Z,39.70
2023-04-30T08:24:01.549Z,39.50
2023-04-30T08:26:30.152Z,39.20
2023-04-30T08:28:58.718Z,38.90
2023-04-30T08:31:28.034Z,38.20
2023-04-30T08:33:56.642Z,37.20
2023-04-30T08:36:25.301Z,35.50
2023-04-30T08:38:54.705Z,33.30
2023-04-30T08:41:23.789Z,31.30
2023-04-30T08:43:52.347Z,29.70
2023-04-30T08:46:21.664Z,28.50
2023-04-30T08:48:50.850Z,27.60
2023-04-30T08:51:19.522Z,26.90
2023-04-30T08:53:48.339Z,26.40
2023-04-30T08:56:17.162Z,26.00
2023-04-30T08:58:46.400Z,25.70
2023-04-30T09:01:15.305Z,25.40
2023-04-30T09:03:44.187Z,25.20
2023-04-30T09:06:13.685Z,25.10
2023-04-30T09:08:43.159Z,24.90
2023-04-30T09:11:12.600Z,24.80
2023-04-30T09:13:42.108Z,24.50
2023-04-30T09:16:11.534Z,24.50
2023-04-30T09:18:40.386Z,24.30
2023-04-30T09:21:09.563Z,24.20
2023-04-30T09:23:38.349Z,24.00
2023-04-30T09:26:07.687Z,23.90
2023-04-30T09:28:36.516Z,23.80
2023-04-30T09:31:05.738Z,23.70
2023-04-30T09:33:34.592Z,23.60
2023-04-30T09:36:03.403Z,23.50
2023-04-30T09:38:32.151Z,23.40
2023-04-30T09:41:01.610Z,23.40
2023-04-30T09:43:30.992Z,23.30
2023-04-30T09:45:59.964Z,23.30
2023-04-30T09:48:29.138Z,23.20
2023-04-30T09:50:57.957Z,23.20
2023-04-30T09:53:26.638Z,23.10
2023-04-30T09:55:56.251Z,23.00
2023-04-30T09:58:27.055Z,23.00
2023-04-30T10:00:55.824Z,22.90
2023-04-30T10:03:25.096Z,22.80
2023-04-30T10:05:54.477Z,22.80
2023-04-30T10:08:23.354Z,22.80
2023-04-30T10:10:52.284Z,22.70
2023-04-30T10:13:20.970Z,22.70
2023-04-30T10:15:49.960Z,22.70
2023-04-30T10:18:18.655Z,22.70
2023-04-30T10:20:47.379Z,22.70
2023-04-30T10:23:16.639Z,22.70
2023-04-30T10:25:45.927Z,22.60
2023-04-30T10:28:14.764Z,22.60
2023-04-30T10:30:43.641Z,22.60
2023-04-30T10:33:15.696Z,22.60
2023-04-30T10:35:45.849Z,22.40
2023-04-30T10:38:15.027Z,22.60
2023-04-30T10:40:44.229Z,22.60
2023-04-30T10:43:13.381Z,22.50
2023-04-30T10:45:42.557Z,22.50
2023-04-30T10:48:11.890Z,22.50
2023-04-30T10:50:42.482Z,22.80
2023-04-30T10:53:13.543Z,24.00
2023-04-30T10:55:42.831Z,23.80
2023-04-30T10:58:12.060Z,23.40
2023-04-30T11:00:41.674Z,23.70
2023-04-30T11:03:11.496Z,23.60
2023-04-30T11:05:40.764Z,23.40
2023-04-30T11:08:09.688Z,23.20
2023-04-30T11:10:37.878Z,23.50
2023-04-30T11:13:06.792Z,23.00
2023-04-30T11:15:35.486Z,24.00
2023-04-30T11:18:04.994Z,24.00
2023-04-30T11:20:34.277Z,23.60
2023-04-30T11:23:03.084Z,23.50
2023-04-30T11:25:32.386Z,23.20
2023-04-30T11:28:01.228Z,23.00
2023-04-30T11:30:30.133Z,22.80
2023-04-30T11:32:59.551Z,22.70
2023-04-30T11:35:28.875Z,23.10
2023-04-30T11:37:58.117Z,23.00
2023-04-30T11:40:27.166Z,22.80
2023-04-30T11:42:55.892Z,22.60
2023-04-30T11:45:24.665Z,22.70
2023-04-30T11:47:54.022Z,23.30
2023-04-30T11:50:23.395Z,23.50
2023-04-30T11:52:52.733Z,24.00
2023-04-30T11:55:22.018Z,23.80
2023-04-30T11:57:51.335Z,23.60
2023-04-30T12:00:20.093Z,23.50
2023-04-30T12:02:49.138Z,23.60
2023-04-30T12:05:17.627Z,23.80
2023-04-30T12:07:45.760Z,24.80
2023-04-30T12:10:15.107Z,24.50
2023-04-30T12:12:43.987Z,24.00
2023-04-30T12:15:13.257Z,23.60
2023-04-30T12:17:42.503Z,23.20
2023-04-30T12:20:11.832Z,23.90
2023-04-30T12:22:40.693Z,24.70
2023-04-30T12:25:09.920Z,24.30
2023-04-30T12:27:38.380Z,24.00
2023-04-30T12:30:07.215Z,23.60
2023-04-30T12:32:36.186Z,23.40
2023-04-30T12:35:05.443Z,23.40
2023-04-30T12:37:34.207Z,23.30
2023-04-30T12:40:03.523Z,23.80
2023-04-30T12:42:32.255Z,24.90
2023-04-30T12:45:01.187Z,26.10
2023-04-30T12:47:30.698Z,27.10
2023-04-30T12:49:59.364Z,27.30
2023-04-30T12:52:27.456Z,27.40
2023-04-30T12:54:56.638Z,27.60
2023-04-30T12:57:25.898Z,27.80
2023-04-30T12:59:55.061Z,28.20
2023-04-30T13:02:24.084Z,28.40
2023-04-30T13:04:53.528Z,28.90
2023-04-30T13:07:22.918Z,29.40
2023-04-30T13:09:52.796Z,29.80
2023-04-30T13:12:22.608Z,30.20
2023-04-30T13:14:51.921Z,30.20
2023-04-30T13:17:21.313Z,30.30
2023-04-30T13:19:50.715Z,30.50
2023-04-30T13:22:19.896Z,30.90
2023-04-30T13:24:49.103Z,31.50
2023-04-30T13:27:18.000Z,32.00
2023-04-30T13:29:47.097Z,32.40
2023-04-30T13:32:15.378Z,32.40
2023-04-30T13:34:44.266Z,32.70
2023-04-30T13:37:13.437Z,33.10
2023-04-30T13:39:42.197Z,33.50
2023-04-30T13:42:11.479Z,32.40
2023-04-30T13:44:40.706Z,30.50
2023-04-30T13:47:09.986Z,29.40
2023-04-30T13:49:38.917Z,29.30
2023-04-30T13:52:07.923Z,29.70
2023-04-30T13:54:36.097Z,30.40
2023-04-30T13:57:05.442Z,31.20
2023-04-30T13:59:34.197Z,32.00
2023-04-30T14:02:03.578Z,32.60
2023-04-30T14:04:32.841Z,33.20
2023-04-30T14:07:02.091Z,33.60
2023-04-30T14:09:31.374Z,34.00
2023-04-30T14:12:00.207Z,34.20
2023-04-30T14:14:29.591Z,34.60
2023-04-30T14:16:58.617Z,34.80
2023-04-30T14:19:28.064Z,34.00
2023-04-30T14:21:57.989Z,33.00
2023-04-30T14:24:27.449Z,32.50
2023-04-30T14:26:56.602Z,32.70
2023-04-30T14:29:25.828Z,33.00
2023-04-30T14:31:54.997Z,33.20
2023-04-30T14:34:24.347Z,33.50
2023-04-30T14:36:53.797Z,33.80
2023-04-30T14:39:22.787Z,34.10
2023-04-30T14:41:52.880Z,34.50
2023-04-30T14:44:22.741Z,34.90
2023-04-30T14:46:52.033Z,35.10
2023-04-30T14:49:20.884Z,35.30
2023-04-30T14:51:50.294Z,35.60
2023-04-30T14:54:19.151Z,35.70
2023-04-30T14:56:47.970Z,36.00
2023-04-30T14:59:16.794Z,36.00
2023-04-30T15:01:46.148Z,36.10
2023-04-30T15:04:15.459Z,36.20
2023-04-30T15:06:44.452Z,36.90
2023-04-30T15:09:13.424Z,36.40
2023-04-30T15:11:42.861Z,36.50
2023-04-30T15:14:12.289Z,36.60
2023-04-30T15:16:41.501Z,36.60
2023-04-30T15:19:10.872Z,36.60
2023-04-30T15:21:40.269Z,36.60
2023-04-30T15:24:09.133Z,36.70
2023-04-30T15:26:38.497Z,36.80
2023-04-30T15:29:07.779Z,36.90
2023-04-30T15:31:36.958Z,37.00
2023-04-30T15:34:05.943Z,37.20
2023-04-30T15:36:34.811Z,37.30
2023-04-30T15:39:04.060Z,37.40
2023-04-30T15:41:33.387Z,37.60
2023-04-30T15:44:02.153Z,37.70
2023-04-30T15:46:31.628Z,37.80
2023-04-30T15:49:01.046Z,38.00
2023-04-30T15:51:29.680Z,38.00
2023-04-30T15:53:58.029Z,38.60
2023-04-30T15:56:26.206Z,38.00
2023-04-30T15:58:55.352Z,38.00
2023-04-30T16:01:24.065Z,38.00
2023-04-30T16:03:53.395Z,38.00
2023-04-30T16:06:22.168Z,38.10
2023-04-30T16:08:50.879Z,38.20
2023-04-30T16:11:20.142Z,38.30
2023-04-30T16:13:49.580Z,38.40
2023-04-30T16:16:18.813Z,38.50
2023-04-30T16:18:47.685Z,38.60
2023-04-30T16:21:17.076Z,38.70
2023-04-30T16:23:46.328Z,38.90
2023-04-30T16:26:15.709Z,39.10
2023-04-30T16:28:44.471Z,39.10
2023-04-30T16:31:13.631Z,39.30
2023-04-30T16:33:42.368Z,39.40
2023-04-30T16:36:11.100Z,39.40
2023-04-30T16:38:40.470Z,39.50
2023-04-30T16:41:09.803Z,39.50
2023-04-30T16:43:39.116Z,39.50
2023-04-30T16:46:08.518Z,39.50
2023-04-30T16:48:37.303Z,39.60
2023-04-30T16:51:06.675Z,39.80
2023-04-30T16:53:35.421Z,39.80
2023-04-30T16:56:04.959Z,39.90
2023-04-30T16:58:33.929Z,40.70
2023-04-30T17:01:02.765Z,40.20
2023-04-30T17:03:31.760Z,40.20
2023-04-30T17:06:01.115Z,40.20
2023-04-30T17:08:29.857Z,40.40
2023-04-30T17:10:59.148Z,40.50
2023-04-30T17:13:28.362Z,40.50
2023-04-30T17:16:00.676Z,40.50
2023-04-30T17:18:30.525Z,40.60
2023-04-30T17:20:59.852Z,40.60
2023-04-30T17:23:29.150Z,40.70
2023-04-30T17:25:59.615Z,40.70
2023-04-30T17:28:28.386Z,40.70
2023-04-30T17:30:57.667Z,40.90
2023-04-30T17:33:27.025Z,40.80
2023-04-30T17:35:56.229Z,40.80
2023-04-30T17:38:25.482Z,40.90
2023-04-30T17:40:54.270Z,40.90
2023-04-30T17:43:23.153Z,40.80
2023-04-30T17:45:52.032Z,41.00
2023-04-30T17:48:21.225Z,41.00
2023-04-30T17:50:50.481Z,41.10
2023-04-30T17:53:19.270Z,41.10
2023-04-30T17:55:48.491Z,41.10
2023-04-30T17:58:17.828Z,41.20
2023-04-30T18:00:47.175Z,41.30
2023-04-30T18:03:16.468Z,41.40
2023-04-30T18:05:45.211Z,41.40
2023-04-30T18:08:14.512Z,41.40
2023-04-30T18:10:43.956Z,41.50
2023-04-30T18:13:13.221Z,41.60
2023-04-30T18:15:41.682Z,41.70
2023-04-30T18:18:09.931Z,41.70
2023-04-30T18:20:39.054Z,41.80
2023-04-30T18:23:12.027Z,41.80
2023-04-30T18:25:41.322Z,41.80
2023-04-30T18:28:10.975Z,42.00
2023-04-30T18:30:40.022Z,42.00
2023-04-30T18:33:09.027Z,42.00
2023-04-30T18:35:37.962Z,42.00
2023-04-30T18:38:07.222Z,42.10
2023-04-30T18:40:36.012Z,42.20
2023-04-30T18:43:05.300Z,42.30
2023-04-30T18:45:34.622Z,42.30
2023-04-30T18:48:03.510Z,42.40
2023-04-30T18:50:32.905Z,42.40
2023-04-30T18:53:01.841Z,42.60
2023-04-30T18:55:31.216Z,42.60
2023-04-30T18:58:00.053Z,42.60
2023-04-30T19:00:29.391Z,42.70
2023-04-30T19:02:58.784Z,42.70
2023-04-30T19:05:28.132Z,42.80
2023-04-30T19:07:57.391Z,43.00
2023-04-30T19:10:26.677Z,42.90
2023-04-30T19:12:56.080Z,43.00
2023-04-30T19:15:24.941Z,43.10
2023-04-30T19:17:58.094Z,43.20
2023-04-30T19:20:27.400Z,43.20
2023-04-30T19:22:56.688Z,43.30
2023-04-30T19:25:26.073Z,43.30
2023-04-30T19:27:55.367Z,43.40
2023-04-30T19:30:24.642Z,43.50
2023-04-30T19:32:53.381Z,43.40
2023-04-30T19:35:22.705Z,43.50
2023-04-30T19:37:51.511Z,43.50
2023-04-30T19:40:20.222Z,43.50
2023-04-30T19:42:48.131Z,43.60
2023-04-30T19:45:16.784Z,43.60
2023-04-30T19:47:46.144Z,43.60
2023-04-30T19:50:15.500Z,43.60
2023-04-30T19:52:44.527Z,43.70
2023-04-30T19:55:12.739Z,43.80
2023-04-30T19:57:42.076Z,43.80
2023-04-30T20:00:11.443Z,43.80
2023-04-30T20:02:40.433Z,43.80
2023-04-30T20:05:09.671Z,43.80
2023-04-30T20:07:38.997Z,43.80
2023-04-30T20:10:07.950Z,43.90
2023-04-30T20:12:36.276Z,43.90
2023-04-30T20:15:05.154Z,43.90
2023-04-30T20:17:34.472Z,43.90
2023-04-30T20:20:03.801Z,43.90
2023-04-30T20:22:32.575Z,44.00
2023-04-30T20:25:01.360Z,44.00
2023-04-30T20:27:30.084Z,44.00
2023-04-30T20:29:59.334Z,44.00
2023-04-30T20:32:28.678Z,44.00
2023-04-30T20:34:57.849Z,44.10
2023-04-30T20:37:26.716Z,44.10
2023-04-30T20:39:54.965Z,44.10
2023-04-30T20:42:24.013Z,44.20
2023-04-30T20:44:53.289Z,44.20
2023-04-30T20:47:26.311Z,44.30
2023-04-30T20:49:55.900Z,44.20
2023-04-30T20:52:25.405Z,44.30
2023-04-30T20:54:54.728Z,44.30
2023-04-30T20:57:23.538Z,44.20
2023-04-30T20:59:52.215Z,44.20
2023-04-30T21:02:21.497Z,44.30
2023-04-30T21:04:50.785Z,44.30
2023-04-30T21:07:20.024Z,44.30
2023-04-30T21:09:49.329Z,44.40
2023-04-30T21:12:18.076Z,44.40
2023-04-30T21:14:47.406Z,44.40
2023-04-30T21:17:16.396Z,44.40
2023-04-30T21:19:44.952Z,44.40
2023-04-30T21:22:14.312Z,44.40
2023-04-30T21:24:43.528Z,44.40
2023-04-30T21:27:12.256Z,44.40
2023-04-30T21:29:41.622Z,44.50
2023-04-30T21:32:10.542Z,44.40
2023-04-30T21:34:39.742Z,44.40
2023-04-30T21:37:08.471Z,44.50
2023-04-30T21:39:37.654Z,44.40
2023-04-30T21:42:06.113Z,44.50
2023-04-30T21:44:34.028Z,44.50
2023-04-30T21:47:02.641Z,44.50
2023-04-30T21:49:31.808Z,44.60
2023-04-30T21:52:01.026Z,44.50
2023-04-30T21:54:35.411Z,44.50
2023-04-30T21:57:04.757Z,44.60
2023-04-30T21:59:34.159Z,44.70
2023-04-30T22:02:13.042Z,44.70
2023-04-30T22:04:51.440Z,44.60
2023-04-30T22:07:18.940Z,44.70
2023-04-30T22:09:47.149Z,44.60
2023-04-30T22:12:15.880Z,44.80
2023-04-30T22:14:45.228Z,44.70
2023-04-30T22:17:14.464Z,44.70
2023-04-30T22:19:43.690Z,44.80
2023-04-30T22:22:12.477Z,44.70
2023-04-30T22:24:41.635Z,44.70
2023-04-30T22:27:10.922Z,44.80
2023-04-30T22:29:40.283Z,44.80
2023-04-30T22:32:09.600Z,44.80
2023-04-30T22:34:38.100Z,44.80
2023-04-30T22:37:06.740Z,44.80
2023-04-30T22:39:35.601Z,44.80
2023-04-30T22:42:07.956Z,44.80
2023-04-30T22:44:36.723Z,44.80
2023-04-30T22:47:06.247Z,44.90
2023-04-30T22:49:35.130Z,44.90
2023-04-30T22:52:04.428Z,44.90
2023-04-30T22:54:33.387Z,44.90
2023-04-30T22:57:02.268Z,45.00
2023-04-30T22:59:31.570Z,44.90
2023-04-30T23:02:00.395Z,44.90
2023-04-30T23:04:29.816Z,44.90
2023-04-30T23:06:59.219Z,45.00
2023-04-30T23:09:28.526Z,44.90
2023-04-30T23:11:57.500Z,45.00
2023-04-30T23:14:25.632Z,45.00
2023-04-30T23:16:54.883Z,45.00
2023-04-30T23:19:23.720Z,45.00
2023-04-30T23:21:52.525Z,45.00
2023-04-30T23:24:21.737Z,45.00
2023-04-30T23:26:50.906Z,45.00
2023-04-30T23:29:19.720Z,44.90
2023-04-30T23:31:49.119Z,45.00
2023-04-30T23:34:18.545Z,44.90
2023-04-30T23:36:47.509Z,44.90
2023-04-30T23:39:16.325Z,44.90
2023-04-30T23:41:45.462Z,45.00
2023-04-30T23:44:14.780Z,44.90
2023-04-30T23:46:44.181Z,45.00
2023-04-30T23:49:13.227Z,45.00
2023-04-30T23:51:41.933Z,45.00
2023-04-30T23:54:11.175Z,45.00
2023-04-30T23:56:40.157Z,45.00
2023-04-30T23:59:08.797Z,45.00
